Time;durP1;ratioP1;P1;durP2;ratioP2;P2;SDS_P1;SDS_P2;PMS_P1;PMS_P2;Temp;Humidity;BMP_temperature;BMP_pressure;BME280_temperature;BME280_humidity;BME280_pressure;Samples;Min_cycle;Max_cycle;Signal;HPM_P1;HPM_P2
2021/07/28 00:01:44;;;;;;;50.67;21.10;;;;;;;16.89;100.00;100866.78;5050761;28;20140;-53
2021/07/28 00:04:12;;;;;;;31.92;19.52;;;;;;;16.81;100.00;100874.09;5050836;28;20106;-55
2021/07/28 00:06:40;;;;;;;29.98;18.67;;;;;;;16.78;100.00;100873.97;5050630;28;20552;-58
2021/07/28 00:09:08;;;;;;;31.25;19.20;;;;;;;16.78;100.00;100874.81;5050153;28;20068;-60
2021/07/28 00:11:35;;;;;;;32.25;20.17;;;;;;;16.78;100.00;100869.19;5050882;28;20164;-60
2021/07/28 00:14:03;;;;;;;34.13;21.30;;;;;;;16.77;100.00;100875.16;5050915;28;20041;-59
2021/07/28 00:16:31;;;;;;;27.30;17.83;;;;;;;16.76;100.00;100865.88;5050245;28;20056;-61
2021/07/28 00:19:06;;;;;;;28.27;19.05;;;;;;;16.76;100.00;100865.88;5046203;28;20132;-62
2021/07/28 00:24:19;;;;;;;29.75;20.13;;;;;;;16.75;100.00;100866.22;5040215;28;20128;-64
2021/07/28 00:26:47;;;;;;;28.20;18.95;;;;;;;16.73;100.00;100866.53;5050577;28;20052;-63
2021/07/28 00:29:15;;;;;;;34.67;20.88;;;;;;;16.74;100.00;100854.09;5050088;28;20067;-67
2021/07/28 00:31:43;;;;;;;30.45;20.92;;;;;;;16.74;100.00;100856.94;5048046;28;20053;-65
2021/07/28 00:34:12;;;;;;;33.50;22.67;;;;;;;16.73;100.00;100846.81;5049929;28;20049;-64
2021/07/28 00:36:40;;;;;;;33.17;22.73;;;;;;;16.69;100.00;100859.94;5050214;28;20417;-68
2021/07/28 00:39:07;;;;;;;34.63;22.73;;;;;;;16.69;100.00;100837.38;5049991;28;20045;-66
2021/07/28 00:41:39;;;;;;;34.47;22.90;;;;;;;16.68;100.00;100840.53;5052917;28;20063;-68
2021/07/28 00:44:07;;;;;;;36.78;22.58;;;;;;;16.67;100.00;100839.72;5053872;28;20048;-66
2021/07/28 00:46:35;;;;;;;38.15;24.73;;;;;;;16.68;100.00;100849.81;5054108;28;20087;-65
2021/07/28 00:49:03;;;;;;;38.45;24.73;;;;;;;16.70;100.00;100843.84;5049512;28;20084;-66
2021/07/28 00:51:33;;;;;;;37.22;23.33;;;;;;;16.70;100.00;100843.84;5052097;28;20124;-68
2021/07/28 00:54:02;;;;;;;37.72;23.35;;;;;;;16.69;100.00;100837.38;5053980;28;20045;-66
2021/07/28 00:56:31;;;;;;;32.72;22.77;;;;;;;16.71;100.00;100837.88;5054163;28;20144;-67
2021/07/28 00:58:59;;;;;;;37.42;25.15;;;;;;;16.72;100.00;100833.91;5046875;28;20413;-65
2021/07/28 01:01:28;;;;;;;35.67;22.63;;;;;;;16.73;100.00;100840.34;5053965;28;20059;-69
2021/07/28 01:03:56;;;;;;;30.70;21.10;;;;;;;16.72;100.00;100839.53;5053656;28;20045;-64
2021/07/28 01:06:23;;;;;;;33.20;21.30;;;;;;;16.74;100.00;100831.56;5054070;28;20084;-67
2021/07/28 01:08:52;;;;;;;29.30;20.45;;;;;;;16.77;100.00;100830.88;5053757;28;20107;-64
2021/07/28 01:11:25;;;;;;;31.30;19.40;;;;;;;16.78;100.00;100826.91;5053090;28;20037;-64
2021/07/28 01:13:52;;;;;;;30.05;20.38;;;;;;;16.79;100.00;100822.88;5053553;28;20547;-65
2021/07/28 01:16:22;;;;;;;25.80;18.50;;;;;;;16.82;100.00;100824.19;5052568;28;20394;-66
2021/07/28 01:18:52;;;;;;;22.40;16.33;;;;;;;16.85;100.00;100823.53;5053244;28;20037;-67
2021/07/28 01:21:22;;;;;;;24.05;16.27;;;;;;;16.87;100.00;100819.19;5053703;28;20406;-68
2021/07/28 01:23:51;;;;;;;19.95;14.93;;;;;;;16.90;100.00;100825.31;5053685;28;20116;-64
2021/07/28 01:26:19;;;;;;;21.52;14.00;;;;;;;16.93;100.00;100821.81;5052379;28;20051;-67
2021/07/28 01:28:47;;;;;;;20.75;15.05;;;;;;;16.95;100.00;100813.84;5053895;28;20075;-63
2021/07/28 01:31:16;;;;;;;22.42;14.63;;;;;;;16.96;100.00;100801.41;5053576;28;20086;-65
2021/07/28 01:33:46;;;;;;;20.45;14.52;;;;;;;16.96;100.00;100815.50;5052939;28;20076;-64
2021/07/28 01:36:16;;;;;;;22.40;15.77;;;;;;;16.97;100.00;100809.53;5048443;28;20053;-64
2021/07/28 01:38:44;;;;;;;26.20;16.20;;;;;;;16.99;100.00;100809.97;5053362;28;20048;-65
2021/07/28 01:41:13;;;;;;;21.27;15.85;;;;;;;17.02;100.00;100811.28;5051128;28;20060;-64
2021/07/28 01:43:42;;;;;;;21.83;14.63;;;;;;;17.01;100.00;100804.81;5053377;28;20045;-65
2021/07/28 01:46:10;;;;;;;23.50;14.65;;;;;;;17.01;100.00;100804.81;5052743;28;20049;-65
2021/07/28 01:48:38;;;;;;;18.60;12.77;;;;;;;17.00;100.00;100805.16;5053149;28;20388;-64
2021/07/28 01:51:05;;;;;;;22.35;14.27;;;;;;;17.00;100.00;100799.53;5053189;28;20087;-67
2021/07/28 01:53:33;;;;;;;25.02;14.63;;;;;;;16.99;100.00;100803.50;5049310;28;20500;-66
2021/07/28 01:56:01;;;;;;;20.58;12.70;;;;;;;16.99;100.00;100795.06;5053180;28;20041;-64
2021/07/28 01:58:30;;;;;;;20.55;13.98;;;;;;;17.01;100.00;100801.19;5053091;28;20079;-66
2021/07/28 02:00:59;;;;;;;23.33;14.40;;;;;;;17.01;100.00;100799.19;5052240;28;20080;-65
2021/07/28 02:03:27;;;;;;;24.10;15.20;;;;;;;17.01;100.00;100793.53;5052842;28;20064;-65
2021/07/28 02:05:55;;;;;;;18.90;13.25;;;;;;;17.03;100.00;100807.28;5052694;28;20410;-65
2021/07/28 02:08:23;;;;;;;19.77;12.13;;;;;;;17.05;100.00;100804.97;5052292;28;20067;-64
2021/07/28 02:10:51;;;;;;;18.83;13.15;;;;;;;17.05;100.00;100805.78;5052998;28;20524;-64
2021/07/28 02:13:21;;;;;;;22.33;13.38;;;;;;;17.05;100.00;100802.97;5052638;28;20041;-63
2021/07/28 02:15:50;;;;;;;17.00;10.88;;;;;;;17.04;100.00;100804.13;5052235;28;20124;-64
2021/07/28 02:18:18;;;;;;;15.70;9.18;;;;;;;17.04;100.00;100806.13;5052353;28;20045;-64
2021/07/28 02:20:45;;;;;;;16.35;10.57;;;;;;;17.01;100.00;100812.44;5052702;28;20558;-61
2021/07/28 02:23:13;;;;;;;18.10;9.45;;;;;;;16.95;100.00;100811.03;5040868;28;20102;-64
2021/07/28 02:25:41;;;;;;;13.00;7.32;;;;;;;16.90;100.00;100802.78;5052511;28;20074;-63
2021/07/28 02:28:09;;;;;;;14.10;6.85;;;;;;;16.84;100.00;100811.41;5051832;28;20136;-63
2021/07/28 02:30:36;;;;;;;12.45;6.68;;;;;;;16.78;100.00;100809.16;5052470;28;20131;-61
2021/07/28 02:33:10;;;;;;;18.70;5.50;;;;;;;16.72;100.00;100797.25;5048628;28;20052;-61
2021/07/28 02:35:38;;;;;;;11.32;4.72;;;;;;;16.72;100.00;100796.44;5051981;28;20087;-61
2021/07/28 02:38:06;;;;;;;10.35;5.57;;;;;;;16.71;100.00;100797.59;5052253;28;20532;-60
2021/07/28 02:40:34;;;;;;;11.40;6.63;;;;;;;16.73;100.00;100798.91;5052414;28;20208;-62
2021/07/28 02:43:02;;;;;;;12.95;6.57;;;;;;;16.76;100.00;100801.06;5051469;28;20055;-61
2021/07/28 02:45:29;;;;;;;15.85;6.97;;;;;;;16.78;100.00;100784.63;5051874;28;20119;-62
2021/07/28 02:47:57;;;;;;;11.15;6.35;;;;;;;16.79;100.00;100785.44;5052231;28;20071;-61
2021/07/28 02:50:26;;;;;;;10.57;6.90;;;;;;;16.80;100.00;100787.06;5051488;28;20051;-60
2021/07/28 02:52:54;;;;;;;12.70;7.22;;;;;;;16.81;100.00;100783.09;5051966;28;20092;-60
2021/07/28 02:55:22;;;;;;;15.65;7.50;;;;;;;16.86;100.00;100780.91;5051709;28;20037;-60
2021/07/28 02:57:49;;;;;;;12.00;8.32;;;;;;;16.91;100.00;100782.69;5049856;28;20053;-60
2021/07/28 03:00:18;;;;;;;14.80;8.65;;;;;;;16.95;100.00;100780.03;5052107;28;20052;-60
2021/07/28 03:02:46;;;;;;;18.27;8.00;;;;;;;16.94;100.00;100784.00;5047325;28;20073;-57
2021/07/28 03:05:14;;;;;;;11.63;6.80;;;;;;;16.94;100.00;100779.19;5045010;28;20118;-57
2021/07/28 03:07:43;;;;;;;13.90;6.97;;;;;;;16.94;100.00;100775.56;5051381;28;20048;-59
2021/07/28 03:10:12;;;;;;;12.45;6.70;;;;;;;16.94;100.00;100779.19;5046942;28;20453;-62
2021/07/28 03:12:40;;;;;;;12.85;7.45;;;;;;;16.95;100.00;100777.19;5045112;28;20482;-60
2021/07/28 03:15:08;;;;;;;10.18;6.28;;;;;;;16.98;100.00;100776.53;5051764;28;20066;-60
2021/07/28 03:17:36;;;;;;;12.73;6.80;;;;;;;16.94;100.00;100782.00;5051045;28;20041;-60
2021/07/28 03:20:04;;;;;;;12.02;6.72;;;;;;;16.94;100.00;100781.19;5050203;28;20102;-60
2021/07/28 03:22:33;;;;;;;11.05;6.80;;;;;;;16.95;100.00;100783.66;5051304;28;20045;-60
2021/07/28 03:25:03;;;;;;;12.18;6.88;;;;;;;16.96;100.00;100784.50;5050488;28;20106;-58
2021/07/28 03:27:31;;;;;;;24.45;16.50;;;;;;;16.93;100.00;100786.00;5042568;28;20111;-60
2021/07/28 03:29:59;;;;;;;23.20;16.42;;;;;;;16.89;100.00;100785.03;5051258;28;20410;-59
2021/07/28 03:32:27;;;;;;;21.05;16.48;;;;;;;16.85;100.00;100779.25;5050776;28;20509;-60
2021/07/28 03:34:55;;;;;;;28.20;20.20;;;;;;;16.81;100.00;100783.91;5050923;28;20049;-60
2021/07/28 03:37:23;;;;;;;22.73;15.80;;;;;;;16.78;100.00;100779.00;5051111;28;20059;-63
2021/07/28 03:40:00;;;;;;;20.35;15.38;;;;;;;16.76;100.00;100775.69;5050649;28;20076;-61
2021/07/28 03:42:30;;;;;;;24.65;16.20;;;;;;;16.74;100.00;100771.56;5051287;28;20044;-61
2021/07/28 03:44:59;;;;;;;13.93;8.90;;;;;;;16.73;100.00;100775.53;5049746;28;20083;-59
2021/07/28 03:47:27;;;;;;;15.63;7.97;;;;;;;16.75;100.00;100779.69;5050319;28;20056;-62
2021/07/28 03:49:56;;;;;;;14.23;7.10;;;;;;;16.77;100.00;100773.69;5050607;28;20110;-62
2021/07/28 03:52:23;;;;;;;13.93;7.28;;;;;;;16.80;100.00;100773.81;5050769;28;20075;-61
2021/07/28 03:54:51;;;;;;;14.20;6.40;;;;;;;16.85;100.00;100776.44;5050427;28;20074;-60
2021/07/28 03:57:19;;;;;;;11.75;5.82;;;;;;;16.86;100.00;100780.91;5050607;28;20478;-61
2021/07/28 03:59:48;;;;;;;10.25;6.10;;;;;;;16.90;100.00;100774.59;5050025;28;20071;-61
2021/07/28 04:02:16;;;;;;;11.52;5.90;;;;;;;16.92;100.00;100777.88;5049186;28;20172;-60
2021/07/28 04:04:44;;;;;;;12.90;5.55;;;;;;;16.94;100.00;100776.38;5050451;28;20445;-61
2021/07/28 04:07:12;;;;;;;16.90;12.18;;;;;;;16.96;100.00;100776.84;5049956;28;20495;-61
2021/07/28 04:09:40;;;;;;;17.30;13.18;;;;;;;16.93;100.00;100779.53;5050407;28;20053;-60
2021/07/28 04:12:08;;;;;;;21.58;16.88;;;;;;;16.87;100.00;100767.63;5050483;28;20052;-62
2021/07/28 04:14:36;;;;;;;24.42;19.55;;;;;;;16.80;100.00;100767.34;5049991;28;20375;-61
2021/07/28 04:17:06;;;;;;;22.98;17.17;;;;;;;16.77;100.00;100776.50;5053929;28;20049;-61
2021/07/28 04:19:34;;;;;;;21.63;17.67;;;;;;;16.74;100.00;100766.75;5054887;28;20083;-60
2021/07/28 04:22:01;;;;;;;24.05;17.63;;;;;;;16.70;100.00;100770.59;5054085;28;20037;-61
2021/07/28 04:24:29;;;;;;;24.50;19.65;;;;;;;16.67;100.00;100774.91;5043856;28;20115;-60
2021/07/28 04:26:57;;;;;;;21.55;18.35;;;;;;;16.68;100.00;100772.91;5052826;28;20406;-60
2021/07/28 04:29:25;;;;;;;19.35;14.32;;;;;;;16.66;100.00;100773.25;5054240;28;20055;-61
2021/07/28 04:31:53;;;;;;;22.27;15.98;;;;;;;16.62;100.00;100775.06;5054273;28;20103;-60
2021/07/28 04:34:22;;;;;;;26.13;17.20;;;;;;;16.61;100.00;100776.25;5054542;28;20043;-60
2021/07/28 04:36:49;;;;;;;24.52;18.08;;;;;;;16.62;100.00;100775.06;5053905;28;20079;-60
2021/07/28 04:39:17;;;;;;;22.88;17.40;;;;;;;16.62;100.00;100762.97;5054425;28;20450;-60
2021/07/28 04:41:45;;;;;;;24.10;17.65;;;;;;;16.61;100.00;100776.25;5054425;28;20156;-61
2021/07/28 04:44:13;;;;;;;27.52;18.70;;;;;;;16.57;100.00;100777.28;5051768;28;20049;-60
2021/07/28 04:46:41;;;;;;;28.33;19.05;;;;;;;16.57;100.00;100766.84;5054492;28;20077;-60
2021/07/28 04:49:09;;;;;;;26.65;18.73;;;;;;;16.57;100.00;100772.47;5053647;28;20468;-61
2021/07/28 04:51:38;;;;;;;27.75;20.08;;;;;;;16.56;100.00;100770.00;5053316;28;20052;-60
2021/07/28 04:54:06;;;;;;;28.60;21.40;;;;;;;16.56;100.00;100770.84;5053987;28;20502;-60
2021/07/28 04:56:34;;;;;;;27.98;19.90;;;;;;;16.56;100.00;100770.84;5053459;28;20440;-61
2021/07/28 04:59:01;;;;;;;28.95;20.10;;;;;;;16.57;100.00;100763.22;5052752;28;20106;-60
2021/07/28 05:01:29;;;;;;;27.40;20.92;;;;;;;16.57;100.00;100769.66;5054164;28;20512;-60
2021/07/28 05:03:58;;;;;;;27.95;18.50;;;;;;;16.56;100.00;100753.94;5053318;28;20107;-61
2021/07/28 05:06:25;;;;;;;33.25;22.05;;;;;;;16.57;100.00;100766.84;5053785;28;20052;-60
2021/07/28 05:08:54;;;;;;;29.35;21.52;;;;;;;16.58;100.00;100757.22;5053743;28;20076;-61
2021/07/28 05:11:22;;;;;;;28.95;20.30;;;;;;;16.60;100.00;100760.50;5053018;28;20140;-60
2021/07/28 05:13:50;;;;;;;30.65;22.02;;;;;;;16.60;100.00;100749.22;5050822;28;20049;-61
2021/07/28 05:16:18;;;;;;;30.33;21.60;;;;;;;16.61;100.00;100745.25;5053264;28;20057;-61
2021/07/28 05:18:46;;;;;;;31.10;20.35;;;;;;;16.60;100.00;100756.84;5052950;28;20048;-61
2021/07/28 05:21:13;;;;;;;24.88;20.10;;;;;;;16.61;100.00;100755.69;5053605;28;20047;-60
2021/07/28 05:23:43;;;;;;;32.50;23.52;;;;;;;16.62;100.00;100749.72;5052066;28;20047;-61
2021/07/28 05:26:12;;;;;;;30.33;20.75;;;;;;;16.63;100.00;100753.38;5053075;28;20053;-60
2021/07/28 05:28:40;;;;;;;31.10;19.67;;;;;;;16.65;100.00;100754.69;5052712;28;20053;-61
2021/07/28 05:31:08;;;;;;;23.58;16.50;;;;;;;16.66;100.00;100752.72;5053105;28;20106;-62
2021/07/28 05:33:36;;;;;;;16.67;10.73;;;;;;;16.70;100.00;100743.25;5050594;28;20049;-60
2021/07/28 05:36:04;;;;;;;13.57;6.18;;;;;;;16.70;100.00;100742.41;5052992;28;20127;-60
2021/07/28 05:38:33;;;;;;;13.60;6.18;;;;;;;16.73;100.00;100750.19;5052547;28;20079;-61
2021/07/28 05:41:02;;;;;;;12.00;6.18;;;;;;;16.76;100.00;100743.88;5052951;28;20049;-61
2021/07/28 05:43:32;;;;;;;15.15;6.45;;;;;;;16.80;100.00;100742.81;5053064;28;20526;-61
2021/07/28 05:45:59;;;;;;;10.65;5.80;;;;;;;16.86;100.00;100743.44;5052353;28;20147;-61
2021/07/28 05:48:31;;;;;;;12.98;5.63;;;;;;;16.92;100.00;100749.69;5052754;28;20076;-61
2021/07/28 05:50:59;;;;;;;9.02;4.97;;;;;;;16.96;100.00;100745.03;5053005;28;20045;-62
2021/07/28 05:53:27;;;;;;;10.27;5.15;;;;;;;16.97;100.00;100739.03;5052362;28;20127;-61
2021/07/28 05:55:55;;;;;;;12.13;5.80;;;;;;;16.99;100.00;100744.31;5052795;28;20073;-62
2021/07/28 05:58:23;;;;;;;11.00;5.15;;;;;;;17.00;100.00;100746.78;5052666;28;20045;-63
2021/07/28 06:00:52;;;;;;;13.25;4.60;;;;;;;17.02;100.00;100746.44;5052248;28;20171;-61
2021/07/28 06:03:20;;;;;;;10.88;4.90;;;;;;;17.03;100.00;100745.28;5052116;28;20045;-61
2021/07/28 06:05:47;;;;;;;11.10;4.80;;;;;;;17.04;100.00;100752.56;5052503;28;20080;-61
2021/07/28 06:08:15;;;;;;;13.52;4.35;;;;;;;17.08;100.00;100748.72;5052116;28;20055;-63
2021/07/28 06:10:43;;;;;;;12.45;5.32;;;;;;;17.11;100.00;100741.56;5052535;28;20107;-61
2021/07/28 06:13:11;;;;;;;12.65;4.70;;;;;;;17.12;100.00;100744.03;5051910;28;20041;-60
2021/07/28 06:15:39;;;;;;;8.70;4.75;;;;;;;17.11;100.00;100742.38;5051896;28;20114;-61
2021/07/28 06:18:10;;;;;;;10.30;4.78;;;;;;;17.12;100.00;100746.84;5052108;28;20041;-61
2021/07/28 06:20:38;;;;;;;7.88;4.38;;;;;;;17.11;100.00;100747.19;5051704;28;20521;-61
2021/07/28 06:23:06;;;;;;;10.07;4.70;;;;;;;17.12;100.00;100738.41;5052509;28;20033;-63
2021/07/28 06:25:34;;;;;;;11.20;4.97;;;;;;;17.17;100.00;100748.66;5052354;28;20064;-61
2021/07/28 06:28:02;;;;;;;15.35;5.35;;;;;;;17.21;100.00;100746.75;5049849;28;20048;-59
2021/07/28 06:30:29;;;;;;;12.45;5.35;;;;;;;17.24;100.00;100743.25;5052216;28;20406;-61
2021/07/28 06:32:57;;;;;;;10.75;5.00;;;;;;;17.26;100.00;100745.72;5052380;28;20386;-64
2021/07/28 06:35:26;;;;;;;13.52;5.20;;;;;;;17.29;100.00;100742.22;5051446;28;20150;-64
2021/07/28 06:37:54;;;;;;;10.35;5.03;;;;;;;17.35;100.00;100740.84;5051631;28;20087;-61
2021/07/28 06:40:22;;;;;;;9.93;4.55;;;;;;;17.41;100.00;100739.41;5051740;28;20488;-61
2021/07/28 06:42:49;;;;;;;11.38;5.53;;;;;;;17.45;100.00;100741.19;5051434;28;20151;-62
2021/07/28 06:45:17;;;;;;;14.13;6.13;;;;;;;17.51;100.00;100742.63;5052105;28;20049;-61
2021/07/28 06:47:46;;;;;;;13.70;6.43;;;;;;;17.55;100.00;100737.94;5052017;28;20044;-61
2021/07/28 06:50:14;;;;;;;15.60;11.50;;;;;;;17.58;100.00;100741.25;5046818;28;20053;-61
2021/07/28 06:52:43;;;;;;;16.85;11.65;;;;;;;17.56;100.00;100747.25;5044681;28;20219;-61
2021/07/28 06:55:11;;;;;;;16.90;11.73;;;;;;;17.56;100.00;100750.88;5051625;28;20457;-61
2021/07/28 06:57:39;;;;;;;16.70;11.82;;;;;;;17.54;100.00;100756.06;5050893;28;20044;-61
2021/07/28 07:00:07;;;;;;;15.45;11.55;;;;;;;17.49;100.00;100744.16;5051770;28;20043;-64
2021/07/28 07:02:35;;;;;;;18.45;12.52;;;;;;;17.44;100.00;100752.84;5051190;28;20157;-62
2021/07/28 07:05:04;;;;;;;16.08;12.82;;;;;;;17.39;100.00;100767.97;5051634;28;20059;-60
2021/07/28 07:07:33;;;;;;;18.33;14.80;;;;;;;17.29;100.00;100747.84;5051400;28;20041;-51
2021/07/28 07:10:05;;;;;;;19.70;15.05;;;;;;;17.21;100.00;100755.22;5039099;28;20057;-56
2021/07/28 07:12:32;;;;;;;21.20;15.95;;;;;;;17.11;100.00;100758.47;5048793;28;20052;-60
2021/07/28 07:15:00;;;;;;;18.77;14.75;;;;;;;17.07;100.00;100757.50;5049579;28;20045;-60
2021/07/28 07:17:29;;;;;;;18.20;14.65;;;;;;;17.12;100.00;100741.22;5047803;28;20134;-63
2021/07/28 07:19:58;;;;;;;15.95;11.63;;;;;;;17.18;100.00;100751.13;5049399;28;20076;-61
2021/07/28 07:22:26;;;;;;;17.10;11.32;;;;;;;17.25;100.00;100750.53;5048923;28;20130;-61
2021/07/28 07:24:53;;;;;;;16.10;11.20;;;;;;;17.26;100.00;100746.53;5069024;28;20482;-60
2021/07/28 07:27:23;;;;;;;13.27;10.68;;;;;;;17.27;100.00;100742.56;5051071;28;20137;-61
2021/07/28 07:29:51;;;;;;;15.18;10.05;;;;;;;17.25;100.00;100750.53;5051184;28;20041;-66
2021/07/28 07:32:22;;;;;;;15.93;10.40;;;;;;;17.24;100.00;100746.06;5050593;28;20077;-62
2021/07/28 07:34:50;;;;;;;20.33;10.70;;;;;;;17.18;100.00;100742.66;5050994;28;20415;-61
2021/07/28 07:37:18;;;;;;;15.40;11.02;;;;;;;17.16;100.00;100738.53;5050991;28;20037;-61
2021/07/28 07:39:46;;;;;;;18.73;11.80;;;;;;;17.10;100.00;100739.91;5049357;28;20147;-61
2021/07/28 07:42:13;;;;;;;14.13;9.45;;;;;;;17.05;100.00;100743.75;5050826;28;20512;-63
2021/07/28 07:44:45;;;;;;;14.77;10.18;;;;;;;17.04;100.00;100744.94;5050578;28;20472;-62
2021/07/28 07:47:13;;;;;;;14.63;10.52;;;;;;;17.03;100.00;100739.63;5050909;28;20036;-62
2021/07/28 07:49:41;;;;;;;16.58;10.75;;;;;;;17.07;100.00;100740.59;5050220;28;20037;-63
2021/07/28 07:52:09;;;;;;;24.55;10.88;;;;;;;17.08;100.00;100745.06;5049950;28;20073;-62
2021/07/28 07:54:37;;;;;;;15.63;9.85;;;;;;;17.11;100.00;100738.75;5051082;28;20048;-62
2021/07/28 07:57:05;;;;;;;15.02;9.95;;;;;;;17.11;100.00;100744.38;5050681;28;20498;-60
2021/07/28 07:59:33;;;;;;;16.98;10.32;;;;;;;17.11;100.00;100735.94;5050251;28;20103;-63
2021/07/28 08:02:02;;;;;;;15.13;10.27;;;;;;;17.13;100.00;100737.22;5050553;28;20045;-63
2021/07/28 08:04:30;;;;;;;15.43;10.05;;;;;;;17.21;100.00;100729.84;5050788;28;20049;-65
2021/07/28 08:06:58;;;;;;;17.23;10.48;;;;;;;17.25;100.00;100725.16;5050124;28;20084;-66
2021/07/28 08:09:26;;;;;;;15.75;10.40;;;;;;;17.24;100.00;100726.31;5050935;28;20447;-63
2021/07/28 08:11:54;;;;;;;17.33;10.20;;;;;;;17.29;100.00;100726.13;5046638;28;20080;-64
2021/07/28 08:14:22;;;;;;;16.10;9.93;;;;;;;17.40;100.00;100723.66;5048940;28;20052;-64
2021/07/28 08:16:49;;;;;;;12.85;8.73;;;;;;;17.51;100.00;100733.34;5050614;28;20048;-65
2021/07/28 08:19:19;;;;;;;16.75;9.30;;;;;;;17.58;100.00;100727.97;5050791;28;20068;-65
2021/07/28 08:21:47;;;;;;;17.58;9.65;;;;;;;17.66;100.00;100731.88;5049886;28;20390;-65
2021/07/28 08:24:16;;;;;;;14.43;8.68;;;;;;;17.68;100.00;100736.00;5050512;28;20045;-64
2021/07/28 08:26:44;;;;;;;12.65;8.73;;;;;;;17.65;100.00;100728.22;5050368;28;20059;-66
2021/07/28 08:29:12;;;;;;;17.80;8.77;;;;;;;17.66;100.00;100732.69;5050271;28;20044;-64
2021/07/28 08:31:42;;;;;;;14.13;10.43;;;;;;;17.65;100.00;100727.41;5050589;28;20045;-67
2021/07/28 08:34:10;;;;;;;18.30;10.30;;;;;;;17.65;100.00;100721.75;5050184;28;20145;-63
2021/07/28 08:36:39;;;;;;;15.35;10.57;;;;;;;17.68;100.00;100723.88;5050341;28;20057;-63
2021/07/28 08:39:07;;;;;;;15.40;11.05;;;;;;;17.72;100.00;100727.66;5050271;28;20214;-67
2021/07/28 08:41:36;;;;;;;16.42;10.52;;;;;;;17.84;100.00;100711.56;5049790;28;20470;-67
2021/07/28 08:44:04;;;;;;;16.27;11.68;;;;;;;18.03;100.00;100722.25;5050587;28;20044;-63
2021/07/28 08:46:33;;;;;;;18.83;11.50;;;;;;;18.11;100.00;100715.69;5050525;28;20076;-64
2021/07/28 08:49:02;;;;;;;15.15;10.80;;;;;;;18.18;100.00;100721.56;5047270;28;20556;-63
2021/07/28 08:51:30;;;;;;;15.35;10.40;;;;;;;18.14;100.00;100717.81;5050399;28;20053;-62
2021/07/28 08:54:03;;;;;;;14.52;10.30;;;;;;;18.05;100.00;100717.09;5050107;28;20473;-64
2021/07/28 08:56:31;;;;;;;15.63;10.23;;;;;;;17.95;100.00;100709.09;5049993;28;20053;-65
2021/07/28 08:58:59;;;;;;;14.25;10.02;;;;;;;17.94;100.00;100715.91;5050210;28;20120;-65
2021/07/28 09:01:27;;;;;;;16.05;10.55;;;;;;;17.90;100.00;100717.78;5050818;28;20055;-63
2021/07/28 09:03:55;;;;;;;17.15;10.50;;;;;;;17.86;100.00;100726.13;5053590;28;20132;-63
2021/07/28 09:06:29;;;;;;;17.17;10.93;;;;;;;17.81;100.00;100723.53;5053841;28;20110;-62
2021/07/28 09:08:58;;;;;;;18.23;9.65;;;;;;;17.78;100.00;100717.81;5043176;28;20051;-65
2021/07/28 09:11:27;;;;;;;11.25;8.07;;;;;;;17.66;100.00;100707.31;5050534;28;20091;-67
2021/07/28 09:13:57;;;;;;;11.02;7.15;;;;;;;17.60;100.00;100714.31;5053997;28;20458;-65
2021/07/28 09:16:34;;;;;;;11.95;5.05;;;;;;;17.55;100.00;100718.19;5050767;28;20110;-67
2021/07/28 09:19:02;;;;;;;11.23;4.93;;;;;;;17.55;100.00;100728.66;5052470;28;20140;-66
2021/07/28 09:21:31;;;;;;;10.75;4.70;;;;;;;17.58;100.00;100721.50;5053230;28;20040;-66
2021/07/28 09:24:09;;;;;;;10.98;4.78;;;;;;;17.56;100.00;100721.84;5053336;28;20059;-65
2021/07/28 09:26:43;;;;;;;10.48;5.10;;;;;;;17.54;100.00;100721.38;5053591;28;20053;-65
2021/07/28 09:29:13;;;;;;;9.73;4.68;;;;;;;17.54;100.00;100712.91;5050060;28;20110;-66
2021/07/28 09:31:42;;;;;;;13.32;4.95;;;;;;;17.54;100.00;100716.56;5052645;28;20057;-67
2021/07/28 09:34:32;;;;;;;8.18;4.28;;;;;;;17.51;100.00;100722.06;5053307;28;20457;-64
2021/07/28 09:37:01;;;;;;;11.30;4.18;;;;;;;17.48;100.00;100706.66;5048933;28;20057;-68
2021/07/28 09:39:30;;;;;;;8.45;4.05;;;;;;;17.48;100.00;100703.84;5048142;28;20045;-64
2021/07/28 09:42:01;;;;;;;10.27;5.13;;;;;;;17.49;100.00;100705.47;5051201;28;20188;-65
2021/07/28 09:44:30;;;;;;;10.45;5.60;;;;;;;17.48;100.00;100712.28;5052661;28;20053;-63
2021/07/28 09:47:08;;;;;;;16.50;6.97;;;;;;;17.35;100.00;100712.63;5053097;28;20049;-61
2021/07/28 09:49:37;;;;;;;11.88;6.60;;;;;;;17.27;100.00;100705.91;5052692;28;20068;-63
2021/07/28 09:52:22;;;;;;;14.27;6.60;;;;;;;17.24;100.00;100700.94;5052543;28;20053;-62
2021/07/28 09:54:53;;;;;;;13.63;6.63;;;;;;;17.12;100.00;100696.09;5052901;28;20143;-62
2021/07/28 09:57:23;;;;;;;13.32;6.30;;;;;;;17.10;100.00;100695.63;5052766;28;20131;-60
2021/07/28 09:59:53;;;;;;;10.02;6.22;;;;;;;17.09;100.00;100699.63;5052741;28;20055;-63
2021/07/28 10:02:23;;;;;;;13.52;6.82;;;;;;;17.10;100.00;100709.72;5053143;28;20049;-63
2021/07/28 10:04:54;;;;;;;9.35;6.22;;;;;;;17.08;100.00;100702.78;5052776;28;20103;-61
2021/07/28 10:07:23;;;;;;;12.35;6.07;;;;;;;17.10;100.00;100703.25;5052293;28;20044;-60
2021/07/28 10:10:02;;;;;;;9.98;6.40;;;;;;;17.11;100.00;100708.56;5052702;28;20219;-62
2021/07/28 10:12:34;;;;;;;15.85;6.28;;;;;;;17.15;100.00;100703.03;5046518;28;20056;-62
2021/07/28 10:15:03;;;;;;;20.13;6.43;;;;;;;17.18;100.00;100714.47;5048080;28;20056;-64
2021/07/28 10:17:32;;;;;;;24.92;7.43;;;;;;;17.30;100.00;100710.84;5052773;28;20057;-63
2021/07/28 10:20:01;;;;;;;19.80;6.25;;;;;;;17.36;100.00;100714.28;5051972;28;20489;-62
2021/07/28 10:22:32;;;;;;;;;;;;;;;17.34;100.00;100702.50;5052966;28;20469;-63
2021/07/28 10:25:02;;;;;;;25.25;6.60;;;;;;;17.39;100.00;100713.56;5052216;28;19920;-60
2021/07/28 10:27:37;;;;;;;22.50;6.40;;;;;;;17.49;100.00;100705.47;5051624;28;20147;-65
2021/07/28 10:30:05;;;;;;;18.10;6.45;;;;;;;17.54;100.00;100716.56;5052223;28;20071;-63
2021/07/28 10:32:35;;;;;;;20.50;7.25;;;;;;;17.55;100.00;100729.50;5052272;28;20045;-63
2021/07/28 10:35:30;;;;;;;20.08;6.47;;;;;;;17.46;100.00;100711.81;5051622;28;20493;-64
2021/07/28 10:37:59;;;;;;;20.25;6.80;;;;;;;17.45;100.00;100707.34;5016452;28;20083;-62
2021/07/28 10:40:47;;;;;;;21.27;6.65;;;;;;;17.46;100.00;100711.81;5050048;28;20084;-66
2021/07/28 10:43:17;;;;;;;21.58;6.78;;;;;;;17.38;100.00;100712.75;5052296;28;20131;-62
2021/07/28 10:45:59;;;;;;;22.30;7.55;;;;;;;17.38;100.00;100717.56;5052126;28;20102;-65
2021/07/28 10:48:45;;;;;;;;;;;;;;;17.28;100.00;100729.28;5051746;28;20098;-61
2021/07/28 10:51:50;;;;;;;32.42;7.65;;;;;;;17.25;100.00;100724.34;5050763;28;19966;-60
2021/07/28 10:54:19;;;;;;;28.92;7.35;;;;;;;17.22;100.00;100714.56;5049306;28;20109;-60
2021/07/28 10:57:05;;;;;;;26.08;7.18;;;;;;;17.29;100.00;100720.47;5051259;28;20428;-63
2021/07/28 10:59:41;;;;;;;25.85;7.55;;;;;;;17.38;100.00;100720.41;5051916;28;20132;-59
2021/07/28 11:02:09;;;;;;;22.55;7.65;;;;;;;17.55;100.00;100735.13;5050317;28;20068;-60
2021/07/28 11:04:37;;;;;;;20.52;7.53;;;;;;;17.72;100.00;100733.31;5051694;28;20048;-61
2021/07/28 11:07:05;;;;;;;18.30;7.57;;;;;;;17.85;100.00;100716.03;5051538;28;20041;-64
2021/07/28 11:09:33;;;;;;;19.75;6.85;;;;;;;18.04;100.00;100715.44;5050834;28;20490;-62
2021/07/28 11:12:02;;;;;;;20.63;6.85;;;;;;;18.28;100.00;100717.44;5046942;28;20140;-60
2021/07/28 11:14:30;;;;;;;22.63;7.05;;;;;;;18.37;100.00;100714.50;5051594;28;20076;-65
2021/07/28 11:17:00;;;;;;;17.08;6.70;;;;;;;18.36;100.00;100715.66;5050851;28;20052;-60
2021/07/28 11:19:45;;;;;;;20.17;6.35;;;;;;;18.36;100.00;100735.44;5051084;28;20389;-62